Aeroporto :







RITROVATECI SU...

 
LOGIN :

Iscrizione | Disclaimer

   EN    FR    IT 

 









Sommario :    VFR   VFR Marginale   IFR   IFR Intensivo   IFR Molto Intensivo
Visibilità : 
Base nubi : 
>= 8 km
>= 3000ft
5 / 8 km
1000 / 3000 ft
1500m / 5 km
500 / 1000 ft
800 / 1500m
200 / 500 ft
< 800m
< 200 ft
Simboli :   Temporali  Nebbia  Neve Forte  Precipitazioni Forti  Vento > 20 kt






- Altitudine del aeroporto : 141 ft
- Codice IATA : YQI


CYQI - Yarmouth

ULTIMO METAR :
  • 271313Z 18003KT 150V210 2SM BR OVC007 14/14 A3025 RMK FG6ST2 SLP247

METARs OBSOLETI :
  • 271306Z 19004KT 1 1/2SM BR OVC007 14/14 A3025 RMK FG7ST1 SLP246
  • 271252Z 18004KT 150V250 3/4SM BR VV002 14/14 A3025 RMK FG8 SLP245
  • 271239Z 18004KT 1/2SM FG VV002 14/14 A3024 RMK FG8 SLP243
  • 271200Z 16004KT 1/4SM FG VV002 13/13 A3025 RMK FG8 SLP244
  • 271100Z 22004KT 1/4SM FG VV002 12/12 A3023 RMK FG8 SLP240

TAF AMD TAF CYQI
Valido dal 27 a 13 ore il 28 a 00 ore UTC


271311Z 2713/2724 20005KT 2SM BR OVC008
TEMPO 2713/2715 1/2SM FG VV002
FM271500 21010KT P6SM OVC008
TEMPO 2715/2722 2SM BR OVC004
FM272200 20005KT 1/4SM FG VV001 RMK NXT FCST BY 271800Z
FIR CZQM / America del Nord



MetMap, La meteo Aeronautica in un colpo d'occhio ! - Copyright ORBIFLY Dicembre 2007 - Disclaimer

ORBIFLY MET'MAP TEAM :

Programmazione e sviluppo : Alexandra Zaïnal
Concezione : Baudouin d'Aumeries
Aiuto per la programmazione : Marc-Olivier Méhu
Supporto tecnico e logistico : Manuel Goepfert
Aiuto per la traduzione : Arnaldo La Scala

Contatto : metmap@orbifly.com




FONTI E CREDITI :

   NOAA